createdAt,value
2022-11-25T00:01:15.973Z,100.00
2022-11-25T00:03:42.332Z,100.00
2022-11-25T00:06:08.679Z,100.00
2022-11-25T00:08:35.034Z,100.00
2022-11-25T00:11:01.402Z,100.00
2022-11-25T00:13:27.808Z,100.00
2022-11-25T00:15:54.164Z,100.00
2022-11-25T00:18:20.601Z,100.00
2022-11-25T00:20:46.965Z,100.00
2022-11-25T00:23:13.300Z,100.00
2022-11-25T00:25:39.622Z,100.00
2022-11-25T00:28:05.994Z,100.00
2022-11-25T00:30:32.363Z,100.00
2022-11-25T00:32:58.782Z,100.00
2022-11-25T00:35:25.165Z,100.00
2022-11-25T00:37:51.512Z,100.00
2022-11-25T00:40:17.866Z,100.00
2022-11-25T00:42:44.313Z,100.00
2022-11-25T00:45:10.597Z,100.00
2022-11-25T00:47:36.936Z,100.00
2022-11-25T00:50:03.277Z,100.00
2022-11-25T00:52:29.620Z,100.00
2022-11-25T00:54:55.984Z,100.00
2022-11-25T00:57:22.400Z,100.00
2022-11-25T00:59:48.760Z,100.00
2022-11-25T01:02:15.155Z,100.00
2022-11-25T01:04:41.440Z,100.00
2022-11-25T01:07:07.786Z,100.00
2022-11-25T01:09:34.147Z,100.00
2022-11-25T01:12:00.519Z,100.00
2022-11-25T01:14:26.833Z,100.00
2022-11-25T01:16:53.260Z,100.00
2022-11-25T01:19:19.579Z,100.00
2022-11-25T01:21:45.966Z,100.00
2022-11-25T01:24:12.288Z,100.00
2022-11-25T01:26:38.702Z,100.00
2022-11-25T01:29:05.060Z,100.00
2022-11-25T01:31:31.493Z,100.00
2022-11-25T01:33:57.769Z,100.00
2022-11-25T01:36:24.112Z,100.00
2022-11-25T01:38:50.433Z,100.00
2022-11-25T01:41:16.818Z,100.00
2022-11-25T01:43:43.172Z,100.00
2022-11-25T01:46:09.566Z,100.00
2022-11-25T01:48:35.839Z,100.00
2022-11-25T01:51:02.226Z,100.00
2022-11-25T01:53:28.541Z,100.00
2022-11-25T01:55:54.878Z,100.00
2022-11-25T01:58:21.249Z,100.00
2022-11-25T02:00:47.657Z,100.00
2022-11-25T02:03:13.987Z,100.00
2022-11-25T02:05:40.325Z,100.00
2022-11-25T02:08:06.641Z,100.00
2022-11-25T02:10:33.027Z,100.00
2022-11-25T02:12:59.340Z,100.00
2022-11-25T02:15:25.685Z,100.00
2022-11-25T02:17:52.025Z,100.00
2022-11-25T02:20:18.415Z,100.00
2022-11-25T02:22:44.727Z,100.00
2022-11-25T02:25:11.125Z,100.00
2022-11-25T02:27:37.455Z,100.00
2022-11-25T02:30:03.834Z,100.00
2022-11-25T02:32:30.381Z,100.00
2022-11-25T02:34:56.760Z,100.00
2022-11-25T02:37:23.073Z,100.00
2022-11-25T02:39:49.458Z,100.00
2022-11-25T02:42:15.808Z,100.00
2022-11-25T02:44:42.265Z,100.00
2022-11-25T02:47:08.620Z,100.00
2022-11-25T02:49:34.990Z,100.00
2022-11-25T02:52:01.350Z,100.00
2022-11-25T02:54:27.676Z,100.00
2022-11-25T02:56:54.055Z,100.00
2022-11-25T02:59:20.386Z,100.00
2022-11-25T03:01:46.775Z,100.00
2022-11-25T03:04:13.151Z,100.00
2022-11-25T03:06:39.500Z,100.00
2022-11-25T03:09:05.838Z,100.00
2022-11-25T03:11:32.158Z,100.00
2022-11-25T03:13:58.544Z,100.00
2022-11-25T03:16:24.930Z,100.00
2022-11-25T03:18:51.312Z,100.00
2022-11-25T03:21:17.675Z,100.00
2022-11-25T03:23:44.052Z,100.00
2022-11-25T03:26:10.400Z,100.00
2022-11-25T03:28:36.816Z,100.00
2022-11-25T03:31:03.166Z,100.00
2022-11-25T03:33:29.501Z,100.00
2022-11-25T03:35:55.830Z,100.00
2022-11-25T03:38:22.163Z,100.00
2022-11-25T03:40:48.548Z,100.00
2022-11-25T03:43:14.872Z,100.00
2022-11-25T03:45:41.332Z,100.00
2022-11-25T03:48:07.573Z,100.00
2022-11-25T03:50:33.930Z,100.00
2022-11-25T03:53:00.269Z,100.00
2022-11-25T03:55:26.630Z,100.00
2022-11-25T03:57:52.969Z,100.00
2022-11-25T04:00:19.334Z,100.00
2022-11-25T04:02:45.761Z,100.00
2022-11-25T04:05:12.058Z,100.00
2022-11-25T04:07:38.515Z,100.00
2022-11-25T04:10:04.820Z,100.00
2022-11-25T04:12:31.207Z,100.00
2022-11-25T04:14:57.560Z,100.00
2022-11-25T04:17:23.895Z,100.00
2022-11-25T04:19:50.250Z,100.00
2022-11-25T04:22:16.588Z,100.00
2022-11-25T04:24:42.907Z,100.00
2022-11-25T04:27:09.305Z,100.00
2022-11-25T04:29:35.639Z,100.00
2022-11-25T04:32:01.993Z,100.00
2022-11-25T04:34:28.349Z,100.00
2022-11-25T04:36:54.727Z,100.00
2022-11-25T04:39:21.054Z,100.00
2022-11-25T04:41:47.395Z,100.00
2022-11-25T04:44:13.714Z,100.00
2022-11-25T04:46:40.129Z,100.00
2022-11-25T04:49:06.442Z,100.00
2022-11-25T04:51:32.833Z,100.00
2022-11-25T04:53:59.154Z,100.00
2022-11-25T04:56:25.497Z,100.00
2022-11-25T04:58:51.851Z,100.00
2022-11-25T05:01:18.266Z,100.00
2022-11-25T05:03:49.618Z,100.00
2022-11-25T05:06:10.928Z,100.00
2022-11-25T05:08:37.238Z,100.00
2022-11-25T05:11:03.668Z,100.00
2022-11-25T05:13:29.973Z,100.00
2022-11-25T05:15:56.310Z,100.00
2022-11-25T05:18:22.668Z,100.00
2022-11-25T05:20:49.147Z,100.00
2022-11-25T05:23:15.429Z,100.00
2022-11-25T05:25:41.766Z,100.00
2022-11-25T05:28:08.087Z,100.00
2022-11-25T05:30:34.519Z,100.00
2022-11-25T05:33:00.780Z,100.00
2022-11-25T05:35:27.155Z,100.00
2022-11-25T05:37:53.518Z,100.00
2022-11-25T05:40:19.892Z,100.00
2022-11-25T05:42:46.223Z,100.00
2022-11-25T05:45:12.684Z,100.00
2022-11-25T05:47:39.009Z,100.00
2022-11-25T05:50:05.341Z,100.00
2022-11-25T05:52:31.698Z,100.00
2022-11-25T05:54:58.027Z,100.00
2022-11-25T05:57:24.341Z,100.00
2022-11-25T05:59:50.724Z,100.00
2022-11-25T06:02:17.116Z,100.00
2022-11-25T06:04:43.456Z,95.52
2022-11-25T06:07:09.907Z,91.24
2022-11-25T06:09:36.174Z,88.27
2022-11-25T06:12:02.619Z,86.38
2022-11-25T06:14:28.983Z,84.82
2022-11-25T06:16:55.318Z,83.61
2022-11-25T06:19:21.707Z,83.20
2022-11-25T06:21:48.051Z,81.97
2022-11-25T06:24:14.404Z,80.86
2022-11-25T06:26:40.781Z,81.01
2022-11-25T06:29:07.144Z,81.08
2022-11-25T06:31:33.627Z,81.02
2022-11-25T06:33:59.915Z,80.94
2022-11-25T06:36:26.335Z,80.47
2022-11-25T06:38:52.694Z,80.76
2022-11-25T06:41:19.021Z,81.00
2022-11-25T06:43:45.378Z,80.95
2022-11-25T06:46:11.869Z,80.48
2022-11-25T06:48:38.105Z,80.05
2022-11-25T06:51:04.478Z,79.94
2022-11-25T06:53:30.844Z,80.73
2022-11-25T06:55:57.210Z,80.89
2022-11-25T06:58:35.538Z,80.81
2022-11-25T07:00:49.997Z,80.93
2022-11-25T07:03:16.372Z,81.10
2022-11-25T07:05:42.739Z,80.62
2022-11-25T07:08:09.112Z,80.49
2022-11-25T07:10:35.497Z,80.16
2022-11-25T07:13:01.851Z,80.40
2022-11-25T07:15:28.232Z,80.67
2022-11-25T07:17:54.596Z,81.09
2022-11-25T07:20:20.914Z,80.64
2022-11-25T07:22:47.271Z,80.27
2022-11-25T07:25:13.598Z,79.91
2022-11-25T07:27:39.930Z,79.92
2022-11-25T07:32:32.615Z,79.31
2022-11-25T07:34:58.952Z,78.41
2022-11-25T07:37:25.306Z,78.28
2022-11-25T07:39:51.651Z,78.02
2022-11-25T07:42:18.010Z,77.96
2022-11-25T07:44:44.360Z,78.23
2022-11-25T07:47:10.715Z,78.32
2022-11-25T07:49:37.211Z,77.94
2022-11-25T07:52:03.446Z,76.16
2022-11-25T07:54:29.792Z,74.37
2022-11-25T07:56:56.197Z,73.07
2022-11-25T07:59:22.609Z,71.33
2022-11-25T08:01:48.986Z,69.38
2022-11-25T08:04:19.992Z,66.46
2022-11-25T08:06:41.697Z,64.35
2022-11-25T08:09:08.039Z,62.55
2022-11-25T08:11:34.446Z,61.55
2022-11-25T08:14:00.824Z,60.40
2022-11-25T08:16:27.272Z,59.11
2022-11-25T08:18:53.572Z,58.44
2022-11-25T08:21:19.896Z,57.68
2022-11-25T08:23:46.264Z,57.35
2022-11-25T08:26:12.701Z,56.79
2022-11-25T08:28:39.031Z,56.03
2022-11-25T08:31:05.649Z,55.34
2022-11-25T08:33:31.938Z,55.06
2022-11-25T08:35:58.258Z,54.67
2022-11-25T08:38:24.597Z,54.70
2022-11-25T08:40:50.962Z,53.67
2022-11-25T08:43:17.311Z,53.20
2022-11-25T08:45:43.638Z,52.96
2022-11-25T08:48:10.067Z,52.62
2022-11-25T08:50:36.387Z,52.62
2022-11-25T08:53:02.734Z,51.84
2022-11-25T08:55:29.078Z,50.93
2022-11-25T08:57:55.461Z,50.77
2022-11-25T09:00:21.828Z,50.55
2022-11-25T09:02:48.279Z,50.15
2022-11-25T09:05:14.625Z,49.73
2022-11-25T09:07:41.074Z,48.42
2022-11-25T09:10:07.283Z,48.50
2022-11-25T09:12:33.674Z,48.18
2022-11-25T09:15:00.038Z,47.57
2022-11-25T09:17:26.408Z,46.88
2022-11-25T09:19:52.728Z,46.16
2022-11-25T09:22:19.075Z,45.85
2022-11-25T09:24:45.404Z,45.71
2022-11-25T09:27:11.790Z,45.54
2022-11-25T09:29:38.282Z,45.33
2022-11-25T09:32:04.468Z,45.23
2022-11-25T09:34:30.830Z,44.72
2022-11-25T09:36:57.302Z,44.02
2022-11-25T09:39:23.667Z,43.77
2022-11-25T09:41:50.022Z,43.64
2022-11-25T09:44:16.356Z,42.89
2022-11-25T09:46:42.847Z,43.14
2022-11-25T09:49:09.124Z,43.04
2022-11-25T09:51:35.461Z,43.31
2022-11-25T09:54:01.795Z,42.90
2022-11-25T09:56:28.182Z,42.59
2022-11-25T09:58:54.521Z,42.26
2022-11-25T10:01:20.915Z,42.11
2022-11-25T10:03:47.394Z,41.56
2022-11-25T10:06:13.729Z,40.80
2022-11-25T10:08:40.003Z,40.39
2022-11-25T10:11:06.344Z,40.24
2022-11-25T10:13:32.669Z,40.83
2022-11-25T10:15:59.147Z,40.26
2022-11-25T10:18:25.411Z,40.45
2022-11-25T10:20:51.744Z,40.04
2022-11-25T10:23:18.145Z,39.57
2022-11-25T10:25:44.495Z,39.33
2022-11-25T10:28:10.860Z,39.44
2022-11-25T10:30:37.193Z,38.79
2022-11-25T10:33:03.557Z,38.61
2022-11-25T10:35:29.910Z,38.66
2022-11-25T10:37:56.278Z,38.44
2022-11-25T10:40:22.622Z,38.50
2022-11-25T10:42:48.978Z,38.26
2022-11-25T10:45:15.327Z,38.16
2022-11-25T10:47:41.673Z,37.96
2022-11-25T10:50:07.994Z,37.66
2022-11-25T10:52:34.353Z,37.18
2022-11-25T10:55:00.707Z,37.17
2022-11-25T10:57:27.032Z,36.87
2022-11-25T10:59:53.423Z,37.15
2022-11-25T11:02:19.805Z,36.86
2022-11-25T11:04:46.081Z,37.11
2022-11-25T11:07:12.484Z,37.49
2022-11-25T11:09:38.801Z,37.93
2022-11-25T11:12:05.151Z,38.57
2022-11-25T11:14:31.563Z,38.81
2022-11-25T11:16:57.920Z,39.28
2022-11-25T11:19:24.293Z,39.11
2022-11-25T11:21:50.648Z,39.21
2022-11-25T11:24:16.991Z,38.87
2022-11-25T11:26:43.356Z,39.02
2022-11-25T11:29:13.938Z,39.09
2022-11-25T11:31:36.161Z,39.26
2022-11-25T11:34:02.454Z,39.20
2022-11-25T11:36:28.810Z,39.22
2022-11-25T11:38:55.203Z,39.46
2022-11-25T11:41:21.519Z,39.27
2022-11-25T11:43:47.905Z,39.76
2022-11-25T11:46:14.273Z,39.89
2022-11-25T11:48:40.571Z,39.79
2022-11-25T11:51:06.898Z,39.75
2022-11-25T11:53:33.237Z,39.83
2022-11-25T11:56:32.998Z,39.18
2022-11-25T11:58:25.952Z,39.41
2022-11-25T12:00:52.273Z,39.87
2022-11-25T12:03:18.726Z,39.74
2022-11-25T12:05:44.984Z,39.49
2022-11-25T12:08:11.317Z,39.26
2022-11-25T12:10:37.681Z,39.56
2022-11-25T12:13:04.021Z,39.55
2022-11-25T12:15:30.396Z,39.10
2022-11-25T12:17:56.731Z,39.01
2022-11-25T12:20:23.169Z,39.09
2022-11-25T12:22:49.433Z,39.05
2022-11-25T12:25:15.811Z,39.27
2022-11-25T12:27:42.197Z,39.16
2022-11-25T12:30:08.577Z,38.89
2022-11-25T12:32:34.957Z,39.04
2022-11-25T12:35:01.382Z,39.40
2022-11-25T12:37:27.750Z,39.49
2022-11-25T12:39:54.111Z,39.58
2022-11-25T12:42:20.492Z,39.75
2022-11-25T12:44:46.856Z,39.88
2022-11-25T12:47:13.249Z,39.58
2022-11-25T12:49:39.612Z,39.46
2022-11-25T12:52:05.984Z,39.68
2022-11-25T12:54:32.310Z,40.21
2022-11-25T12:56:58.694Z,40.47
2022-11-25T12:59:25.061Z,40.40
2022-11-25T13:01:51.591Z,40.39
2022-11-25T13:04:17.829Z,40.67
2022-11-25T13:06:44.212Z,40.95
2022-11-25T13:09:10.550Z,40.84
2022-11-25T13:11:37.297Z,40.69
2022-11-25T13:14:03.569Z,40.81
2022-11-25T13:16:30.087Z,40.73
2022-11-25T13:18:55.982Z,40.98
2022-11-25T13:21:22.393Z,41.10
2022-11-25T13:23:49.531Z,41.24
2022-11-25T13:26:15.116Z,41.10
2022-11-25T13:28:41.443Z,41.26
2022-11-25T13:31:07.848Z,41.54
2022-11-25T13:33:34.164Z,41.81
2022-11-25T13:36:00.551Z,41.98
2022-11-25T13:38:26.867Z,42.44
2022-11-25T13:40:53.209Z,42.73
2022-11-25T13:43:19.587Z,42.82
2022-11-25T13:45:45.992Z,42.70
2022-11-25T13:48:12.275Z,43.07
2022-11-25T13:51:03.421Z,43.23
2022-11-25T13:53:05.049Z,43.70
2022-11-25T13:55:31.399Z,43.83
2022-11-25T13:57:57.744Z,44.21
2022-11-25T14:00:24.142Z,44.30
2022-11-25T14:02:50.586Z,44.43
2022-11-25T14:05:16.870Z,44.59
2022-11-25T14:07:43.279Z,44.79
2022-11-25T14:10:09.600Z,44.95
2022-11-25T14:12:35.946Z,46.12
2022-11-25T14:15:02.280Z,45.87
2022-11-25T14:17:28.684Z,45.98
2022-11-25T14:19:55.294Z,45.91
2022-11-25T14:22:21.387Z,46.31
2022-11-25T14:24:47.777Z,46.68
2022-11-25T14:27:14.186Z,46.66
2022-11-25T14:29:40.563Z,46.99
2022-11-25T14:32:06.962Z,47.33
2022-11-25T14:34:33.289Z,47.80
2022-11-25T14:36:59.638Z,47.72
2022-11-25T14:39:26.030Z,47.93
2022-11-25T14:41:52.384Z,48.11
2022-11-25T14:44:18.754Z,48.26
2022-11-25T14:46:45.142Z,48.75
2022-11-25T14:49:30.785Z,49.02
2022-11-25T14:51:37.835Z,49.28
2022-11-25T14:54:04.219Z,49.88
2022-11-25T14:56:30.555Z,49.95
2022-11-25T14:58:56.937Z,50.06
2022-11-25T15:01:23.290Z,50.18
2022-11-25T15:03:49.729Z,50.49
2022-11-25T15:06:16.060Z,50.32
2022-11-25T15:08:42.362Z,50.55
2022-11-25T15:11:08.685Z,50.76
2022-11-25T15:13:35.058Z,50.82
2022-11-25T15:16:01.469Z,51.04
2022-11-25T15:18:27.810Z,51.25
2022-11-25T15:20:54.159Z,51.28
2022-11-25T15:23:20.554Z,51.56
2022-11-25T15:25:46.907Z,51.78
2022-11-25T15:28:13.332Z,51.66
2022-11-25T15:30:39.703Z,51.96
2022-11-25T15:33:06.028Z,51.99
2022-11-25T15:35:32.400Z,52.03
2022-11-25T15:37:58.819Z,52.13
2022-11-25T15:40:25.096Z,52.29
2022-11-25T15:42:51.447Z,52.66
2022-11-25T15:45:17.771Z,52.86
2022-11-25T15:47:44.225Z,53.67
2022-11-25T15:50:10.496Z,53.64
2022-11-25T15:52:36.883Z,53.46
2022-11-25T15:55:03.241Z,54.08
2022-11-25T15:57:29.610Z,53.22
2022-11-25T15:59:56.000Z,52.93
2022-11-25T16:02:22.444Z,53.31
2022-11-25T16:04:48.736Z,53.21
2022-11-25T16:07:15.144Z,53.36
2022-11-25T16:09:41.474Z,53.32
2022-11-25T16:12:07.818Z,53.37
2022-11-25T16:14:34.211Z,53.10
2022-11-25T16:17:00.666Z,53.18
2022-11-25T16:19:26.863Z,53.26
2022-11-25T16:21:53.536Z,53.11
2022-11-25T16:24:19.927Z,53.24
2022-11-25T16:26:46.309Z,53.34
2022-11-25T16:29:12.609Z,53.24
2022-11-25T16:31:38.993Z,53.32
2022-11-25T16:34:05.337Z,53.55
2022-11-25T16:36:31.721Z,53.63
2022-11-25T16:38:58.060Z,53.74
2022-11-25T16:41:24.441Z,53.86
2022-11-25T16:43:50.827Z,53.62
2022-11-25T16:46:17.216Z,53.68
2022-11-25T16:48:43.549Z,53.63
2022-11-25T16:51:09.870Z,53.75
2022-11-25T16:53:36.290Z,53.98
2022-11-25T16:56:02.706Z,54.08
2022-11-25T16:58:29.049Z,53.77
2022-11-25T17:00:55.412Z,53.92
2022-11-25T17:03:21.763Z,53.96
2022-11-25T17:05:48.148Z,54.01
2022-11-25T17:08:14.558Z,53.93
2022-11-25T17:10:40.813Z,54.26
2022-11-25T17:13:07.206Z,54.41
2022-11-25T17:15:33.688Z,54.24
2022-11-25T17:17:59.936Z,54.52
2022-11-25T17:20:26.259Z,54.81
2022-11-25T17:22:52.602Z,54.68
2022-11-25T17:25:18.916Z,54.47
2022-11-25T17:27:45.316Z,54.64
2022-11-25T17:30:11.630Z,54.89
2022-11-25T17:32:37.986Z,55.24
2022-11-25T17:35:04.363Z,54.95
2022-11-25T17:37:30.730Z,55.24
2022-11-25T17:39:57.110Z,55.32
2022-11-25T17:42:23.448Z,55.36
2022-11-25T17:44:53.064Z,55.04
2022-11-25T17:47:16.165Z,55.22
2022-11-25T17:49:42.558Z,55.15
2022-11-25T17:52:08.891Z,55.26
2022-11-25T17:54:35.683Z,55.62
2022-11-25T17:57:01.623Z,55.77
2022-11-25T17:59:27.982Z,55.76
2022-11-25T18:01:54.429Z,55.81
2022-11-25T18:04:20.732Z,58.50
2022-11-25T18:06:47.083Z,61.57
2022-11-25T18:09:13.408Z,60.87
2022-11-25T18:11:42.627Z,60.01
2022-11-25T18:14:06.075Z,59.27
2022-11-25T18:16:32.468Z,60.04
2022-11-25T18:18:58.757Z,59.98
2022-11-25T18:21:25.140Z,59.77
2022-11-25T18:23:51.457Z,58.81
2022-11-25T18:26:17.886Z,58.98
2022-11-25T18:28:44.227Z,58.49
2022-11-25T18:31:10.688Z,58.54
2022-11-25T18:33:36.992Z,58.80
2022-11-25T18:36:03.365Z,58.78
2022-11-25T18:38:29.680Z,58.54
2022-11-25T18:40:56.033Z,58.17
2022-11-25T18:43:22.388Z,58.42
2022-11-25T18:45:48.799Z,58.33
2022-11-25T18:48:15.084Z,58.76
2022-11-25T18:50:41.465Z,58.81
2022-11-25T18:53:07.826Z,58.73
2022-11-25T18:55:34.208Z,58.97
2022-11-25T18:58:00.518Z,58.97
2022-11-25T19:00:34.138Z,67.93
2022-11-25T19:02:53.245Z,66.68
2022-11-25T19:05:19.605Z,66.19
2022-11-25T19:07:46.046Z,64.29
2022-11-25T19:10:13.888Z,63.55
2022-11-25T19:12:38.592Z,62.91
2022-11-25T19:15:04.931Z,62.61
2022-11-25T19:17:31.330Z,62.29
2022-11-25T19:19:57.732Z,61.85
2022-11-25T19:22:24.101Z,61.93
2022-11-25T19:24:50.483Z,61.85
2022-11-25T19:27:16.869Z,61.80
2022-11-25T19:29:43.264Z,61.54
2022-11-25T19:32:09.709Z,61.29
2022-11-25T19:34:36.450Z,61.39
2022-11-25T19:37:02.312Z,61.48
2022-11-25T19:39:28.692Z,61.46
2022-11-25T19:41:55.004Z,61.51
2022-11-25T19:44:21.395Z,61.38
2022-11-25T19:47:13.703Z,61.62
2022-11-25T19:49:14.129Z,61.65
2022-11-25T19:51:40.518Z,61.70
2022-11-25T19:54:06.850Z,61.83
2022-11-25T19:56:33.221Z,62.08
2022-11-25T19:58:59.556Z,62.02
2022-11-25T20:01:25.986Z,62.36
2022-11-25T20:03:52.261Z,62.55
2022-11-25T20:06:18.675Z,62.66
2022-11-25T20:08:45.047Z,62.62
2022-11-25T20:11:11.425Z,62.80
2022-11-25T20:13:37.773Z,62.68
2022-11-25T20:16:04.286Z,62.33
2022-11-25T20:18:30.479Z,62.31
2022-11-25T20:20:56.793Z,62.56
2022-11-25T20:23:23.159Z,62.78
2022-11-25T20:25:49.586Z,63.09
2022-11-25T20:28:15.994Z,63.20
2022-11-25T20:30:42.299Z,63.39
2022-11-25T20:33:08.679Z,63.37
2022-11-25T20:35:35.044Z,63.34
2022-11-25T20:38:01.383Z,63.29
2022-11-25T20:40:27.737Z,63.30
2022-11-25T20:42:54.114Z,63.34
2022-11-25T20:45:20.466Z,63.40
2022-11-25T20:47:46.844Z,63.43
2022-11-25T20:50:13.249Z,63.37
2022-11-25T20:52:39.982Z,63.38
2022-11-25T20:55:06.300Z,63.23
2022-11-25T20:57:32.633Z,63.24
2022-11-25T20:59:58.962Z,63.49
2022-11-25T21:02:25.382Z,63.46
2022-11-25T21:04:51.685Z,63.62
2022-11-25T21:07:18.139Z,63.91
2022-11-25T21:09:44.398Z,63.53
2022-11-25T21:12:14.615Z,63.64
2022-11-25T21:14:37.257Z,63.51
2022-11-25T21:17:03.431Z,63.62
2022-11-25T21:19:29.782Z,63.58
2022-11-25T21:21:56.157Z,64.00
2022-11-25T21:24:22.509Z,64.56
2022-11-25T21:26:48.837Z,64.97
2022-11-25T21:29:15.351Z,65.19
2022-11-25T21:31:41.753Z,64.96
2022-11-25T21:34:08.087Z,64.87
2022-11-25T21:36:34.552Z,65.32
2022-11-25T21:39:00.929Z,65.68
2022-11-25T21:41:27.277Z,65.93
2022-11-25T21:43:53.596Z,66.11
2022-11-25T21:46:20.011Z,66.46
2022-11-25T21:48:46.438Z,66.65
2022-11-25T21:51:12.758Z,66.86
2022-11-25T21:53:39.082Z,67.12
2022-11-25T21:56:05.652Z,67.03
2022-11-25T21:58:31.998Z,66.79
2022-11-25T22:00:58.374Z,66.81
2022-11-25T22:03:24.746Z,67.02
2022-11-25T22:05:51.064Z,67.18
2022-11-25T22:08:17.366Z,66.97
2022-11-25T22:10:43.741Z,66.99
2022-11-25T22:13:10.098Z,66.66
2022-11-25T22:15:36.444Z,66.59
2022-11-25T22:18:02.826Z,66.73
2022-11-25T22:20:29.202Z,67.03
2022-11-25T22:22:55.574Z,67.19
2022-11-25T22:25:21.954Z,67.50
2022-11-25T22:27:48.299Z,67.60
2022-11-25T22:30:14.676Z,68.02
2022-11-25T22:32:40.993Z,67.78
2022-11-25T22:35:07.336Z,67.38
2022-11-25T22:37:33.721Z,67.30
2022-11-25T22:40:00.056Z,67.38
2022-11-25T22:42:26.375Z,67.27
2022-11-25T22:44:52.718Z,67.29
2022-11-25T22:47:19.103Z,67.73
2022-11-25T22:49:45.441Z,68.13
2022-11-25T22:52:11.804Z,67.67
2022-11-25T22:54:38.274Z,67.34
2022-11-25T22:57:04.479Z,67.06
2022-11-25T22:59:30.855Z,66.86
2022-11-25T23:01:57.180Z,66.87
2022-11-25T23:04:23.506Z,66.71
2022-11-25T23:06:49.843Z,66.87
2022-11-25T23:09:16.232Z,67.19
2022-11-25T23:11:42.546Z,67.28
2022-11-25T23:14:09.013Z,67.34
2022-11-25T23:16:35.376Z,67.58
2022-11-25T23:19:01.677Z,68.21
2022-11-25T23:21:28.015Z,68.25
2022-11-25T23:23:54.392Z,68.24
2022-11-25T23:26:20.709Z,68.10
2022-11-25T23:28:47.054Z,67.90
2022-11-25T23:31:13.440Z,67.42
2022-11-25T23:33:39.751Z,66.78
2022-11-25T23:36:08.803Z,65.98
2022-11-25T23:38:32.415Z,65.36
2022-11-25T23:40:58.741Z,65.36
2022-11-25T23:43:25.121Z,65.05
2022-11-25T23:45:51.523Z,64.69
2022-11-25T23:48:17.820Z,64.43
2022-11-25T23:50:44.140Z,64.68
2022-11-25T23:53:10.484Z,64.88
2022-11-25T23:55:36.905Z,65.02
2022-11-25T23:58:03.275Z,65.03
